sensor_id;sensor_type;location;lat;lon;timestamp;pressure;altitude;pressure_sealevel;temperature;humidity
11198;BME280;5655;48.744;9.162;2024-01-15T00:02:06;95044.75;;;-0.43;100.00
11198;BME280;5655;48.744;9.162;2024-01-15T00:04:36;95041.84;;;-0.51;100.00
11198;BME280;5655;48.744;9.162;2024-01-15T00:07:01;95040.59;;;-0.32;100.00
11198;BME280;5655;48.744;9.162;2024-01-15T00:09:27;95040.28;;;-0.19;100.00
11198;BME280;5655;48.744;9.162;2024-01-15T00:11:52;95040.38;;;-0.27;100.00
11198;BME280;5655;48.744;9.162;2024-01-15T00:14:18;95041.88;;;-0.38;100.00
11198;BME280;5655;48.744;9.162;2024-01-15T00:16:45;95029.72;;;-0.43;100.00
11198;BME280;5655;48.744;9.162;2024-01-15T00:19:10;95033.34;;;-0.48;100.00
11198;BME280;5655;48.744;9.162;2024-01-15T00:21:36;95031.03;;;-0.49;100.00
11198;BME280;5655;48.744;9.162;2024-01-15T00:24:01;95025.63;;;-0.65;100.00
11198;BME280;5655;48.744;9.162;2024-01-15T00:26:26;95018.63;;;-0.61;100.00
11198;BME280;5655;48.744;9.162;2024-01-15T00:28:52;95022.56;;;-0.87;100.00
11198;BME280;5655;48.744;9.162;2024-01-15T00:31:17;95018.38;;;-0.68;100.00
11198;BME280;5655;48.744;9.162;2024-01-15T00:33:43;95014.28;;;-0.77;100.00
11198;BME280;5655;48.744;9.162;2024-01-15T00:36:08;95022.09;;;-0.69;100.00
11198;BME280;5655;48.744;9.162;2024-01-15T00:38:33;95008.56;;;-0.47;100.00
11198;BME280;5655;48.744;9.162;2024-01-15T00:40:59;95011.84;;;-0.62;100.00
11198;BME280;5655;48.744;9.162;2024-01-15T00:43:24;95020.13;;;-0.72;100.00
11198;BME280;5655;48.744;9.162;2024-01-15T00:45:49;95007.13;;;-0.89;100.00
11198;BME280;5655;48.744;9.162;2024-01-15T00:48:14;95015.78;;;-0.56;100.00
11198;BME280;5655;48.744;9.162;2024-01-15T00:50:40;95011.56;;;-0.69;100.00
11198;BME280;5655;48.744;9.162;2024-01-15T00:53:05;95026.28;;;-0.88;100.00
11198;BME280;5655;48.744;9.162;2024-01-15T00:55:30;95025.75;;;-0.82;100.00
11198;BME280;5655;48.744;9.162;2024-01-15T00:57:56;95020.88;;;-1.04;100.00
11198;BME280;5655;48.744;9.162;2024-01-15T01:00:21;95011.69;;;-0.98;100.00
11198;BME280;5655;48.744;9.162;2024-01-15T01:02:46;95025.75;;;-0.82;100.00
11198;BME280;5655;48.744;9.162;2024-01-15T01:05:12;95022.75;;;-0.72;100.00
11198;BME280;5655;48.744;9.162;2024-01-15T01:07:38;95024.56;;;-0.84;100.00
11198;BME280;5655;48.744;9.162;2024-01-15T01:10:03;95016.38;;;-1.04;100.00
11198;BME280;5655;48.744;9.162;2024-01-15T01:12:29;95008.88;;;-0.93;100.00
11198;BME280;5655;48.744;9.162;2024-01-15T01:14:55;95005.81;;;-0.95;100.00
11198;BME280;5655;48.744;9.162;2024-01-15T01:17:20;95014.34;;;-0.86;100.00
11198;BME280;5655;48.744;9.162;2024-01-15T01:19:46;95012.00;;;-0.79;100.00
11198;BME280;5655;48.744;9.162;2024-01-15T01:22:11;95012.13;;;-0.75;100.00
11198;BME280;5655;48.744;9.162;2024-01-15T01:24:36;95012.22;;;-0.72;100.00
11198;BME280;5655;48.744;9.162;2024-01-15T01:27:02;95012.53;;;-0.73;100.00
11198;BME280;5655;48.744;9.162;2024-01-15T01:29:27;95014.78;;;-0.63;100.00
11198;BME280;5655;48.744;9.162;2024-01-15T01:31:52;95014.00;;;-0.64;100.00
11198;BME280;5655;48.744;9.162;2024-01-15T01:34:18;95007.00;;;-0.60;100.00
11198;BME280;5655;48.744;9.162;2024-01-15T01:36:43;95004.38;;;-0.60;100.00
11198;BME280;5655;48.744;9.162;2024-01-15T01:39:09;95004.56;;;-0.77;100.00
11198;BME280;5655;48.744;9.162;2024-01-15T01:41:34;95006.59;;;-0.62;100.00
11198;BME280;5655;48.744;9.162;2024-01-15T01:44:00;95006.16;;;-0.52;100.00
11198;BME280;5655;48.744;9.162;2024-01-15T01:46:27;95011.41;;;-0.52;100.00
11198;BME280;5655;48.744;9.162;2024-01-15T01:48:53;95004.44;;;-0.48;100.00
11198;BME280;5655;48.744;9.162;2024-01-15T01:51:22;95007.94;;;-0.43;100.00
11198;BME280;5655;48.744;9.162;2024-01-15T01:53:48;95008.16;;;-0.36;100.00
11198;BME280;5655;48.744;9.162;2024-01-15T01:56:14;95010.53;;;-0.56;100.00
11198;BME280;5655;48.744;9.162;2024-01-15T01:58:40;95009.22;;;-0.62;100.00
11198;BME280;5655;48.744;9.162;2024-01-15T02:01:06;95012.44;;;-0.44;100.00
11198;BME280;5655;48.744;9.162;2024-01-15T02:03:31;95002.56;;;-0.47;100.00
11198;BME280;5655;48.744;9.162;2024-01-15T02:05:57;95007.50;;;-0.33;100.00
11198;BME280;5655;48.744;9.162;2024-01-15T02:08:23;95003.31;;;-0.47;100.00
11198;BME280;5655;48.744;9.162;2024-01-15T02:10:48;95003.75;;;-0.57;100.00
11198;BME280;5655;48.744;9.162;2024-01-15T02:13:14;95009.22;;;-0.62;100.00
11198;BME280;5655;48.744;9.162;2024-01-15T02:15:40;95008.88;;;-0.60;100.00
11198;BME280;5655;48.744;9.162;2024-01-15T02:18:06;94996.97;;;-0.58;100.00
11198;BME280;5655;48.744;9.162;2024-01-15T02:20:33;94996.28;;;-0.55;100.00
11198;BME280;5655;48.744;9.162;2024-01-15T02:23:15;95000.66;;;-0.59;100.00
11198;BME280;5655;48.744;9.162;2024-01-15T02:25:45;94993.09;;;-0.60;100.00
11198;BME280;5655;48.744;9.162;2024-01-15T02:28:13;94995.19;;;-0.66;100.00
11198;BME280;5655;48.744;9.162;2024-01-15T02:30:39;94997.19;;;-0.38;100.00
11198;BME280;5655;48.744;9.162;2024-01-15T02:33:06;94995.69;;;-0.27;100.00
11198;BME280;5655;48.744;9.162;2024-01-15T02:35:32;94992.41;;;-0.36;100.00
11198;BME280;5655;48.744;9.162;2024-01-15T02:37:58;94993.53;;;-0.01;100.00
11198;BME280;5655;48.744;9.162;2024-01-15T02:40:23;94998.75;;;-0.25;100.00
11198;BME280;5655;48.744;9.162;2024-01-15T02:42:48;95000.28;;;-0.36;100.00
11198;BME280;5655;48.744;9.162;2024-01-15T02:45:14;94994.38;;;-0.21;100.00
11198;BME280;5655;48.744;9.162;2024-01-15T02:47:39;94988.78;;;-0.32;100.00
11198;BME280;5655;48.744;9.162;2024-01-15T02:50:05;94989.34;;;-0.26;100.00
11198;BME280;5655;48.744;9.162;2024-01-15T02:52:30;94976.47;;;-0.64;100.00
11198;BME280;5655;48.744;9.162;2024-01-15T02:54:56;94981.19;;;-0.58;100.00
11198;BME280;5655;48.744;9.162;2024-01-15T02:57:21;94971.97;;;-0.64;100.00
11198;BME280;5655;48.744;9.162;2024-01-15T02:59:46;94980.06;;;-0.69;100.00
11198;BME280;5655;48.744;9.162;2024-01-15T03:02:12;94985.78;;;-0.55;100.00
11198;BME280;5655;48.744;9.162;2024-01-15T03:04:37;94968.91;;;-0.66;100.00
11198;BME280;5655;48.744;9.162;2024-01-15T03:07:02;94971.09;;;-0.68;100.00
11198;BME280;5655;48.744;9.162;2024-01-15T03:09:28;94969.81;;;-0.62;100.00
11198;BME280;5655;48.744;9.162;2024-01-15T03:11:53;94973.72;;;-0.68;100.00
11198;BME280;5655;48.744;9.162;2024-01-15T03:14:18;94963.66;;;-0.66;100.00
11198;BME280;5655;48.744;9.162;2024-01-15T03:16:45;94962.09;;;-0.79;100.00
11198;BME280;5655;48.744;9.162;2024-01-15T03:19:10;94967.59;;;-0.72;100.00
11198;BME280;5655;48.744;9.162;2024-01-15T03:21:36;94968.91;;;-0.66;100.00
11198;BME280;5655;48.744;9.162;2024-01-15T03:24:01;94963.56;;;-0.69;100.00
11198;BME280;5655;48.744;9.162;2024-01-15T03:26:26;94969.53;;;-0.81;100.00
11198;BME280;5655;48.744;9.162;2024-01-15T03:28:51;94970.38;;;-0.89;100.00
11198;BME280;5655;48.744;9.162;2024-01-15T03:31:17;94969.22;;;-0.79;100.00
11198;BME280;5655;48.744;9.162;2024-01-15T03:33:42;94963.84;;;-0.83;100.00
11198;BME280;5655;48.744;9.162;2024-01-15T03:36:08;94962.09;;;-0.79;100.00
11198;BME280;5655;48.744;9.162;2024-01-15T03:38:33;94963.06;;;-0.83;100.00
11198;BME280;5655;48.744;9.162;2024-01-15T03:40:59;94959.03;;;-0.69;100.00
11198;BME280;5655;48.744;9.162;2024-01-15T03:43:24;94960.59;;;-0.68;100.00
11198;BME280;5655;48.744;9.162;2024-01-15T03:45:49;94955.53;;;-0.73;100.00
11198;BME280;5655;48.744;9.162;2024-01-15T03:48:14;94946.38;;;-0.67;100.00
11198;BME280;5655;48.744;9.162;2024-01-15T03:50:40;94954.44;;;-0.72;100.00
11198;BME280;5655;48.744;9.162;2024-01-15T03:53:05;94953.28;;;-0.62;100.00
11198;BME280;5655;48.744;9.162;2024-01-15T03:55:32;94950.19;;;-0.64;100.00
11198;BME280;5655;48.744;9.162;2024-01-15T03:57:57;94950.97;;;-0.64;100.00
11198;BME280;5655;48.744;9.162;2024-01-15T04:00:22;94950.97;;;-0.64;100.00
11198;BME280;5655;48.744;9.162;2024-01-15T04:02:48;94945.72;;;-0.52;100.00
11198;BME280;5655;48.744;9.162;2024-01-15T04:05:13;94944.00;;;-0.48;100.00
11198;BME280;5655;48.744;9.162;2024-01-15T04:07:38;94935.56;;;-0.53;100.00
11198;BME280;5655;48.744;9.162;2024-01-15T04:10:04;94935.88;;;-0.42;100.00
11198;BME280;5655;48.744;9.162;2024-01-15T04:12:30;94939.75;;;0.09;100.00
11198;BME280;5655;48.744;9.162;2024-01-15T04:14:55;94931.50;;;0.10;100.00
11198;BME280;5655;48.744;9.162;2024-01-15T04:17:20;94940.63;;;0.13;100.00
11198;BME280;5655;48.744;9.162;2024-01-15T04:19:46;94926.66;;;0.24;100.00
11198;BME280;5655;48.744;9.162;2024-01-15T04:22:13;94930.59;;;0.30;100.00
11198;BME280;5655;48.744;9.162;2024-01-15T04:24:38;94934.34;;;0.17;100.00
11198;BME280;5655;48.744;9.162;2024-01-15T04:27:04;94936.06;;;0.37;100.00
11198;BME280;5655;48.744;9.162;2024-01-15T04:29:29;94932.91;;;0.32;100.00
11198;BME280;5655;48.744;9.162;2024-01-15T04:31:54;94929.31;;;0.24;100.00
11198;BME280;5655;48.744;9.162;2024-01-15T04:34:20;94930.81;;;0.37;100.00
11198;BME280;5655;48.744;9.162;2024-01-15T04:36:45;94936.97;;;0.29;100.00
11198;BME280;5655;48.744;9.162;2024-01-15T04:39:10;94937.16;;;0.36;100.00
11198;BME280;5655;48.744;9.162;2024-01-15T04:41:36;94935.59;;;0.47;100.00
11198;BME280;5655;48.744;9.162;2024-01-15T04:44:02;94943.06;;;0.45;100.00
11198;BME280;5655;48.744;9.162;2024-01-15T04:46:27;94935.22;;;0.33;100.00
11198;BME280;5655;48.744;9.162;2024-01-15T04:48:53;94929.88;;;0.58;100.00
11198;BME280;5655;48.744;9.162;2024-01-15T04:51:18;94941.09;;;0.30;100.00
11198;BME280;5655;48.744;9.162;2024-01-15T04:53:44;94945.94;;;0.40;100.00
11198;BME280;5655;48.744;9.162;2024-01-15T04:56:09;94942.84;;;0.51;100.00
11198;BME280;5655;48.744;9.162;2024-01-15T04:58:34;94947.88;;;0.56;100.00
11198;BME280;5655;48.744;9.162;2024-01-15T05:01:00;94937.84;;;0.33;100.00
11198;BME280;5655;48.744;9.162;2024-01-15T05:03:25;94938.00;;;0.53;100.00
11198;BME280;5655;48.744;9.162;2024-01-15T05:05:50;94941.75;;;0.52;100.00
11198;BME280;5655;48.744;9.162;2024-01-15T05:08:16;94941.75;;;0.52;100.00
11198;BME280;5655;48.744;9.162;2024-01-15T05:10:41;94933.63;;;0.44;100.00
11198;BME280;5655;48.744;9.162;2024-01-15T05:13:06;94938.03;;;0.40;100.00
11198;BME280;5655;48.744;9.162;2024-01-15T05:15:31;94937.81;;;0.45;100.00
11198;BME280;5655;48.744;9.162;2024-01-15T05:17:57;94917.47;;;0.58;100.00
11198;BME280;5655;48.744;9.162;2024-01-15T05:20:22;94919.16;;;0.51;100.00
11198;BME280;5655;48.744;9.162;2024-01-15T05:22:48;94917.44;;;0.42;100.00
11198;BME280;5655;48.744;9.162;2024-01-15T05:25:13;94920.56;;;0.48;100.00
11198;BME280;5655;48.744;9.162;2024-01-15T05:27:39;94923.94;;;0.61;100.00
11198;BME280;5655;48.744;9.162;2024-01-15T05:30:08;94913.00;;;0.59;100.00
11198;BME280;5655;48.744;9.162;2024-01-15T05:32:37;94920.44;;;0.57;100.00
11198;BME280;5655;48.744;9.162;2024-01-15T05:35:11;94918.19;;;0.71;100.00
11198;BME280;5655;48.744;9.162;2024-01-15T05:37:39;94929.59;;;0.75;100.00
11198;BME280;5655;48.744;9.162;2024-01-15T05:40:23;94920.69;;;0.52;100.00
11198;BME280;5655;48.744;9.162;2024-01-15T05:42:52;94911.84;;;0.72;100.00
11198;BME280;5655;48.744;9.162;2024-01-15T05:45:25;94914.94;;;0.62;100.00
11198;BME280;5655;48.744;9.162;2024-01-15T05:48:00;94918.59;;;0.85;100.00
11198;BME280;5655;48.744;9.162;2024-01-15T05:51:09;94918.78;;;0.92;100.00
11198;BME280;5655;48.744;9.162;2024-01-15T05:53:40;94924.41;;;0.90;100.00
11198;BME280;5655;48.744;9.162;2024-01-15T05:56:15;94912.06;;;0.67;100.00
11198;BME280;5655;48.744;9.162;2024-01-15T05:58:41;94915.25;;;0.72;100.00
11198;BME280;5655;48.744;9.162;2024-01-15T06:01:06;94908.97;;;0.77;100.00
11198;BME280;5655;48.744;9.162;2024-01-15T06:03:31;94905.66;;;0.80;100.00
11198;BME280;5655;48.744;9.162;2024-01-15T06:05:56;94920.59;;;0.76;100.00
11198;BME280;5655;48.744;9.162;2024-01-15T06:08:22;94903.00;;;0.64;100.00
11198;BME280;5655;48.744;9.162;2024-01-15T06:10:47;94893.56;;;0.63;100.00
11198;BME280;5655;48.744;9.162;2024-01-15T06:13:12;94895.28;;;0.71;100.00
11198;BME280;5655;48.744;9.162;2024-01-15T06:15:38;94906.50;;;0.56;100.00
11198;BME280;5655;48.744;9.162;2024-01-15T06:18:04;94909.44;;;0.67;100.00
11198;BME280;5655;48.744;9.162;2024-01-15T06:20:29;94908.63;;;0.78;100.00
11198;BME280;5655;48.744;9.162;2024-01-15T06:22:55;94916.03;;;0.73;100.00
11198;BME280;5655;48.744;9.162;2024-01-15T06:25:20;94907.50;;;0.64;100.00
11198;BME280;5655;48.744;9.162;2024-01-15T06:27:45;94895.25;;;0.56;100.00
11198;BME280;5655;48.744;9.162;2024-01-15T06:30:11;94908.53;;;0.75;100.00
11198;BME280;5655;48.744;9.162;2024-01-15T06:32:37;94890.09;;;0.75;100.00
11198;BME280;5655;48.744;9.162;2024-01-15T06:35:02;94888.13;;;0.44;100.00
11198;BME280;5655;48.744;9.162;2024-01-15T06:37:27;94887.16;;;0.36;100.00
11198;BME280;5655;48.744;9.162;2024-01-15T06:39:53;94882.81;;;0.28;100.00
11198;BME280;5655;48.744;9.162;2024-01-15T06:42:18;94873.72;;;0.14;100.00
11198;BME280;5655;48.744;9.162;2024-01-15T06:44:43;94876.13;;;0.19;100.00
11198;BME280;5655;48.744;9.162;2024-01-15T06:47:09;94867.44;;;0.30;100.00
11198;BME280;5655;48.744;9.162;2024-01-15T06:49:34;94868.34;;;0.22;100.00
11198;BME280;5655;48.744;9.162;2024-01-15T06:51:59;94858.69;;;0.26;100.00
11198;BME280;5655;48.744;9.162;2024-01-15T06:54:25;94865.78;;;0.38;100.00
11198;BME280;5655;48.744;9.162;2024-01-15T06:56:51;94872.25;;;0.40;100.00
11198;BME280;5655;48.744;9.162;2024-01-15T06:59:17;94860.34;;;0.19;100.00
11198;BME280;5655;48.744;9.162;2024-01-15T07:01:42;94862.31;;;0.22;100.00
11198;BME280;5655;48.744;9.162;2024-01-15T07:04:07;94853.97;;;0.32;100.00
11198;BME280;5655;48.744;9.162;2024-01-15T07:06:33;94864.00;;;0.14;100.00
11198;BME280;5655;48.744;9.162;2024-01-15T07:08:58;94868.44;;;0.38;100.00
11198;BME280;5655;48.744;9.162;2024-01-15T07:11:24;94861.44;;;0.30;100.00
11198;BME280;5655;48.744;9.162;2024-01-15T07:13:49;94880.91;;;0.41;100.00
11198;BME280;5655;48.744;9.162;2024-01-15T07:16:14;94860.66;;;0.29;100.00
11198;BME280;5655;48.744;9.162;2024-01-15T07:18:40;94863.41;;;0.33;100.00
11198;BME280;5655;48.744;9.162;2024-01-15T07:21:06;94862.44;;;0.25;100.00
11198;BME280;5655;48.744;9.162;2024-01-15T07:23:31;94863.25;;;0.69;100.00
11198;BME280;5655;48.744;9.162;2024-01-15T07:25:57;94875.75;;;0.72;100.00
11198;BME280;5655;48.744;9.162;2024-01-15T07:28:23;94884.38;;;0.85;100.00
11198;BME280;5655;48.744;9.162;2024-01-15T07:30:48;94879.94;;;0.73;100.00
11198;BME280;5655;48.744;9.162;2024-01-15T07:33:13;94876.94;;;0.75;100.00
11198;BME280;5655;48.744;9.162;2024-01-15T07:35:39;94878.38;;;0.72;100.00
11198;BME280;5655;48.744;9.162;2024-01-15T07:38:04;94884.41;;;0.73;100.00
11198;BME280;5655;48.744;9.162;2024-01-15T07:40:29;94883.88;;;0.39;100.00
11198;BME280;5655;48.744;9.162;2024-01-15T07:42:55;94874.84;;;0.53;100.00
11198;BME280;5655;48.744;9.162;2024-01-15T07:45:20;94883.22;;;0.30;100.00
11198;BME280;5655;48.744;9.162;2024-01-15T07:47:46;94872.25;;;0.40;100.00
11198;BME280;5655;48.744;9.162;2024-01-15T07:50:11;94876.09;;;0.43;100.00
11198;BME280;5655;48.744;9.162;2024-01-15T07:52:36;94872.25;;;0.40;100.00
11198;BME280;5655;48.744;9.162;2024-01-15T07:55:02;94870.06;;;0.42;100.00
11198;BME280;5655;48.744;9.162;2024-01-15T07:57:29;94884.22;;;0.38;100.00
11198;BME280;5655;48.744;9.162;2024-01-15T07:59:55;94873.97;;;0.49;100.00
11198;BME280;5655;48.744;9.162;2024-01-15T08:02:20;94875.50;;;0.50;100.00
11198;BME280;5655;48.744;9.162;2024-01-15T08:04:47;94892.88;;;0.38;100.00
11198;BME280;5655;48.744;9.162;2024-01-15T08:07:12;94882.94;;;0.60;100.00
11198;BME280;5655;48.744;9.162;2024-01-15T08:09:38;94878.59;;;0.52;100.00
11198;BME280;5655;48.744;9.162;2024-01-15T08:12:03;94892.16;;;0.54;100.00
11198;BME280;5655;48.744;9.162;2024-01-15T08:14:31;94897.16;;;0.71;100.00
11198;BME280;5655;48.744;9.162;2024-01-15T08:16:56;94891.09;;;0.70;100.00
11198;BME280;5655;48.744;9.162;2024-01-15T08:19:22;94886.44;;;0.64;100.00
11198;BME280;5655;48.744;9.162;2024-01-15T08:21:47;94888.34;;;0.79;100.00
11198;BME280;5655;48.744;9.162;2024-01-15T08:24:12;94892.34;;;0.88;100.00
11198;BME280;5655;48.744;9.162;2024-01-15T08:26:38;94896.47;;;0.74;100.00
11198;BME280;5655;48.744;9.162;2024-01-15T08:29:03;94891.69;;;0.64;100.00
11198;BME280;5655;48.744;9.162;2024-01-15T08:31:28;94895.91;;;0.80;100.00
11198;BME280;5655;48.744;9.162;2024-01-15T08:33:54;94894.84;;;0.69;100.00
11198;BME280;5655;48.744;9.162;2024-01-15T08:36:21;94896.66;;;0.81;100.00
11198;BME280;5655;48.744;9.162;2024-01-15T08:38:46;94904.97;;;1.11;100.00
11198;BME280;5655;48.744;9.162;2024-01-15T08:41:12;94891.91;;;0.86;100.00
11198;BME280;5655;48.744;9.162;2024-01-15T08:43:37;94882.28;;;1.06;100.00
11198;BME280;5655;48.744;9.162;2024-01-15T08:46:02;94884.66;;;1.11;100.00
11198;BME280;5655;48.744;9.162;2024-01-15T08:48:29;94892.81;;;1.06;100.00
11198;BME280;5655;48.744;9.162;2024-01-15T08:50:54;94889.09;;;1.07;100.00
11198;BME280;5655;48.744;9.162;2024-01-15T08:53:20;94887.38;;;0.99;100.00
11198;BME280;5655;48.744;9.162;2024-01-15T08:55:45;94890.09;;;1.18;100.00
11198;BME280;5655;48.744;9.162;2024-01-15T08:58:11;94898.25;;;1.13;100.00
11198;BME280;5655;48.744;9.162;2024-01-15T09:00:36;94877.41;;;0.93;100.00
11198;BME280;5655;48.744;9.162;2024-01-15T09:03:02;94894.69;;;1.21;100.00
11198;BME280;5655;48.744;9.162;2024-01-15T09:05:27;94889.94;;;1.11;100.00
11198;BME280;5655;48.744;9.162;2024-01-15T09:07:54;94896.75;;;1.28;100.00
11198;BME280;5655;48.744;9.162;2024-01-15T09:10:19;94896.44;;;1.29;100.00
11198;BME280;5655;48.744;9.162;2024-01-15T09:12:45;94888.84;;;1.28;100.00
11198;BME280;5655;48.744;9.162;2024-01-15T09:15:10;94885.19;;;1.32;100.00
11198;BME280;5655;48.744;9.162;2024-01-15T09:17:36;94878.88;;;1.21;100.00
11198;BME280;5655;48.744;9.162;2024-01-15T09:20:01;94877.03;;;1.38;100.00
11198;BME280;5655;48.744;9.162;2024-01-15T09:22:27;94872.78;;;1.49;100.00
11198;BME280;5655;48.744;9.162;2024-01-15T09:24:52;94876.00;;;1.26;100.00
11198;BME280;5655;48.744;9.162;2024-01-15T09:27:18;94854.00;;;1.19;100.00
11198;BME280;5655;48.744;9.162;2024-01-15T09:29:43;94866.50;;;1.53;100.00
11198;BME280;5655;48.744;9.162;2024-01-15T09:32:11;94864.72;;;1.42;100.00
11198;BME280;5655;48.744;9.162;2024-01-15T09:34:37;94861.38;;;1.45;100.00
11198;BME280;5655;48.744;9.162;2024-01-15T09:37:02;94847.34;;;1.56;100.00
11198;BME280;5655;48.744;9.162;2024-01-15T09:39:29;94847.03;;;1.42;100.00
11198;BME280;5655;48.744;9.162;2024-01-15T09:41:56;94858.50;;;1.50;100.00
11198;BME280;5655;48.744;9.162;2024-01-15T09:44:22;94854.22;;;1.61;100.00
11198;BME280;5655;48.744;9.162;2024-01-15T09:46:48;94881.44;;;1.65;100.00
11198;BME280;5655;48.744;9.162;2024-01-15T09:49:17;94854.75;;;1.51;100.00
11198;BME280;5655;48.744;9.162;2024-01-15T09:51:43;94862.72;;;1.70;100.00
11198;BME280;5655;48.744;9.162;2024-01-15T09:54:08;94856.25;;;1.83;100.00
11198;BME280;5655;48.744;9.162;2024-01-15T09:56:34;94862.88;;;1.77;100.00
11198;BME280;5655;48.744;9.162;2024-01-15T09:59:00;94858.38;;;1.77;100.00
11198;BME280;5655;48.744;9.162;2024-01-15T10:01:26;94855.22;;;1.88;100.00
11198;BME280;5655;48.744;9.162;2024-01-15T10:03:51;94864.88;;;1.99;100.00
11198;BME280;5655;48.744;9.162;2024-01-15T10:06:18;94839.19;;;1.96;100.00
11198;BME280;5655;48.744;9.162;2024-01-15T10:08:49;94846.47;;;2.18;100.00
11198;BME280;5655;48.744;9.162;2024-01-15T10:11:15;94840.63;;;2.09;100.00
11198;BME280;5655;48.744;9.162;2024-01-15T10:13:43;94843.25;;;2.09;100.00
11198;BME280;5655;48.744;9.162;2024-01-15T10:16:08;94839.19;;;1.96;100.00
11198;BME280;5655;48.744;9.162;2024-01-15T10:18:34;94829.78;;;2.14;100.00
11198;BME280;5655;48.744;9.162;2024-01-15T10:21:02;94837.97;;;2.09;100.00
11198;BME280;5655;48.744;9.162;2024-01-15T10:23:27;94832.47;;;1.99;100.00
11198;BME280;5655;48.744;9.162;2024-01-15T10:25:53;94831.41;;;2.19;100.00
11198;BME280;5655;48.744;9.162;2024-01-15T10:28:19;94826.66;;;2.09;100.00
11198;BME280;5655;48.744;9.162;2024-01-15T10:30:44;94833.13;;;2.31;100.00
11198;BME280;5655;48.744;9.162;2024-01-15T10:33:10;94822.91;;;2.10;100.00
11198;BME280;5655;48.744;9.162;2024-01-15T10:35:37;94812.16;;;2.18;100.00
11198;BME280;5655;48.744;9.162;2024-01-15T10:38:05;94820.91;;;2.22;100.00
11198;BME280;5655;48.744;9.162;2024-01-15T10:40:31;94810.06;;;2.08;100.00
11198;BME280;5655;48.744;9.162;2024-01-15T10:42:56;94810.28;;;2.19;100.00
11198;BME280;5655;48.744;9.162;2024-01-15T10:45:23;94809.78;;;1.94;100.00
11198;BME280;5655;48.744;9.162;2024-01-15T10:47:48;94811.31;;;2.14;100.00
11198;BME280;5655;48.744;9.162;2024-01-15T10:50:14;94787.97;;;1.97;100.00
11198;BME280;5655;48.744;9.162;2024-01-15T10:52:40;94791.19;;;2.06;100.00
11198;BME280;5655;48.744;9.162;2024-01-15T10:55:10;94788.19;;;2.08;100.00
11198;BME280;5655;48.744;9.162;2024-01-15T10:57:36;94785.75;;;1.99;100.00
11198;BME280;5655;48.744;9.162;2024-01-15T11:00:03;94800.34;;;2.12;100.00
11198;BME280;5655;48.744;9.162;2024-01-15T11:02:32;94796.47;;;2.06;100.00
11198;BME280;5655;48.744;9.162;2024-01-15T11:04:59;94804.94;;;2.15;100.00
11198;BME280;5655;48.744;9.162;2024-01-15T11:07:24;94801.72;;;2.45;100.00
11198;BME280;5655;48.744;9.162;2024-01-15T11:09:50;94802.94;;;2.28;100.00
11198;BME280;5655;48.744;9.162;2024-01-15T11:12:16;94804.78;;;2.27;100.00
11198;BME280;5655;48.744;9.162;2024-01-15T11:14:46;94803.25;;;2.26;100.00
11198;BME280;5655;48.744;9.162;2024-01-15T11:17:13;94796.88;;;2.27;100.00
11198;BME280;5655;48.744;9.162;2024-01-15T11:24:54;94769.91;;;1.99;100.00
11198;BME280;5655;48.744;9.162;2024-01-15T11:27:43;94777.97;;;2.25;100.00
11198;BME280;5655;48.744;9.162;2024-01-15T11:30:09;94771.88;;;2.21;100.00
11198;BME280;5655;48.744;9.162;2024-01-15T11:32:35;94779.22;;;2.12;100.00
11198;BME280;5655;48.744;9.162;2024-01-15T11:35:01;94765.22;;;2.27;100.00
11198;BME280;5655;48.744;9.162;2024-01-15T11:37:29;94760.59;;;2.24;100.00
11198;BME280;5655;48.744;9.162;2024-01-15T11:40:00;94768.53;;;2.24;100.00
11198;BME280;5655;48.744;9.162;2024-01-15T11:42:26;94773.28;;;2.15;100.00
11198;BME280;5655;48.744;9.162;2024-01-15T11:44:53;94769.50;;;2.16;100.00
11198;BME280;5655;48.744;9.162;2024-01-15T11:50:11;94767.38;;;2.03;100.00
11198;BME280;5655;48.744;9.162;2024-01-15T11:52:38;94785.47;;;2.04;100.00
11198;BME280;5655;48.744;9.162;2024-01-15T11:57:50;94782.00;;;2.00;100.00
11198;BME280;5655;48.744;9.162;2024-01-15T12:00:17;94778.19;;;1.98;100.00
11198;BME280;5655;48.744;9.162;2024-01-15T12:02:44;94775.47;;;2.13;100.00
11198;BME280;5655;48.744;9.162;2024-01-15T12:05:20;94777.00;;;2.14;100.00
11198;BME280;5655;48.744;9.162;2024-01-15T12:07:49;94786.66;;;2.07;100.00
11198;BME280;5655;48.744;9.162;2024-01-15T12:10:16;94784.09;;;2.29;100.00
11198;BME280;5655;48.744;9.162;2024-01-15T12:13:05;94784.63;;;1.81;100.00
11198;BME280;5655;48.744;9.162;2024-01-15T12:15:35;94780.47;;;1.99;100.00
11198;BME280;5655;48.744;9.162;2024-01-15T12:18:01;94782.78;;;1.66;100.00
11198;BME280;5655;48.744;9.162;2024-01-15T12:20:28;94766.06;;;1.58;100.00
11198;BME280;5655;48.744;9.162;2024-01-15T12:22:54;94775.44;;;1.75;100.00
11198;BME280;5655;48.744;9.162;2024-01-15T12:25:23;94775.56;;;1.63;100.00
11198;BME280;5655;48.744;9.162;2024-01-15T12:27:49;94765.28;;;1.58;100.00
11198;BME280;5655;48.744;9.162;2024-01-15T12:30:15;94766.34;;;1.38;100.00
11198;BME280;5655;48.744;9.162;2024-01-15T12:32:41;94772.47;;;1.42;100.00
11198;BME280;5655;48.744;9.162;2024-01-15T12:35:07;94758.16;;;1.43;100.00
11198;BME280;5655;48.744;9.162;2024-01-15T12:37:39;94750.53;;;1.22;100.00
11198;BME280;5655;48.744;9.162;2024-01-15T12:40:05;94755.63;;;1.30;100.00
11198;BME280;5655;48.744;9.162;2024-01-15T12:42:44;94756.19;;;1.20;100.00
11198;BME280;5655;48.744;9.162;2024-01-15T12:45:11;94766.88;;;1.27;100.00
11198;BME280;5655;48.744;9.162;2024-01-15T12:47:37;94764.06;;;1.36;100.00
11198;BME280;5655;48.744;9.162;2024-01-15T12:50:06;94767.19;;;1.42;100.00
11198;BME280;5655;48.744;9.162;2024-01-15T12:52:32;94765.34;;;1.26;100.00
11198;BME280;5655;48.744;9.162;2024-01-15T12:54:57;94765.81;;;1.48;100.00
11198;BME280;5655;48.744;9.162;2024-01-15T12:57:23;94773.06;;;1.51;100.00
11198;BME280;5655;48.744;9.162;2024-01-15T12:59:49;94783.53;;;1.31;100.00
11198;BME280;5655;48.744;9.162;2024-01-15T13:02:15;94774.53;;;1.32;100.00
11198;BME280;5655;48.744;9.162;2024-01-15T13:04:41;94779.78;;;1.32;100.00
11198;BME280;5655;48.744;9.162;2024-01-15T13:07:06;94785.31;;;1.27;100.00
11198;BME280;5655;48.744;9.162;2024-01-15T13:09:32;94784.97;;;1.29;100.00
11198;BME280;5655;48.744;9.162;2024-01-15T13:11:58;94781.41;;;1.21;100.00
11198;BME280;5655;48.744;9.162;2024-01-15T13:14:24;94795.59;;;1.32;100.00